Time;durP1;ratioP1;P1;durP2;ratioP2;P2;SDS_P1;SDS_P2;PMS_P1;PMS_P2;Temp;Humidity;BMP_temperature;BMP_pressure;BME280_temperature;BME280_humidity;BME280_pressure;Samples;Min_cycle;Max_cycle;Signal;HPM_P1;HPM_P2
2023/08/03 00:00:08;;;;;;;69.77;27.40;;;19.40;99.90;;;;;;6243055;23;20392;-74
2023/08/03 00:02:35;;;;;;;72.33;26.97;;;19.30;99.90;;;;;;6242563;23;20400;-74
2023/08/03 00:05:03;;;;;;;68.87;26.67;;;19.30;99.90;;;;;;6242820;23;20461;-73
2023/08/03 00:07:30;;;;;;;72.73;26.80;;;19.30;99.90;;;;;;6243277;23;20410;-73
2023/08/03 00:09:57;;;;;;;73.47;26.67;;;19.20;99.90;;;;;;6243276;23;20447;-74
2023/08/03 00:12:24;;;;;;;72.67;26.80;;;19.30;99.90;;;;;;6242639;23;20430;-74
2023/08/03 00:14:53;;;;;;;70.73;26.97;;;19.30;99.90;;;;;;6242421;23;20403;-73
2023/08/03 00:17:19;;;;;;;74.23;28.03;;;19.30;99.90;;;;;;6242912;23;20400;-73
2023/08/03 00:19:46;;;;;;;69.57;26.63;;;19.40;99.90;;;;;;6242949;23;20418;-74
2023/08/03 00:22:13;;;;;;;69.37;25.77;;;19.40;99.90;;;;;;6243047;23;20404;-73
2023/08/03 00:24:39;;;;;;;73.00;26.27;;;19.50;99.90;;;;;;6242546;23;20419;-74
2023/08/03 00:27:07;;;;;;;73.20;25.60;;;19.50;99.90;;;;;;6242296;23;20918;-73
2023/08/03 00:29:33;;;;;;;72.37;26.57;;;19.60;99.90;;;;;;6242039;23;20910;-73
2023/08/03 00:32:01;;;;;;;73.17;27.00;;;19.60;99.90;;;;;;6242766;23;20442;-73
2023/08/03 00:34:29;;;;;;;74.23;26.73;;;19.50;99.90;;;;;;6242184;23;20432;-73
2023/08/03 00:36:56;;;;;;;71.13;26.67;;;19.60;99.90;;;;;;6242820;23;20400;-73
2023/08/03 00:39:23;;;;;;;72.60;26.20;;;19.60;99.90;;;;;;6242732;23;20412;-74
2023/08/03 00:41:49;;;;;;;72.17;25.53;;;19.50;99.90;;;;;;6242315;23;20400;-74
2023/08/03 00:44:16;;;;;;;72.67;25.93;;;19.50;99.90;;;;;;6242838;23;20408;-74
2023/08/03 00:46:43;;;;;;;69.80;28.00;;;19.50;99.90;;;;;;6242783;23;20404;-73
2023/08/03 00:49:11;;;;;;;75.33;26.23;;;19.40;99.90;;;;;;6242902;23;20593;-74
2023/08/03 00:51:38;;;;;;;74.57;26.13;;;19.30;99.90;;;;;;6243175;23;20505;-73
2023/08/03 00:54:07;;;;;;;73.37;25.57;;;19.30;99.90;;;;;;6243022;23;20404;-73
2023/08/03 00:56:34;;;;;;;71.10;26.77;;;19.30;99.90;;;;;;6242983;23;20442;-73
2023/08/03 00:59:01;;;;;;;69.57;25.60;;;19.30;99.90;;;;;;6242923;23;20408;-73
2023/08/03 01:01:27;;;;;;;69.40;27.10;;;19.20;99.90;;;;;;6243309;23;20400;-73
2023/08/03 01:03:55;;;;;;;71.40;26.20;;;19.30;99.90;;;;;;6242638;23;20408;-74
2023/08/03 01:06:23;;;;;;;72.03;28.47;;;19.20;99.90;;;;;;6242789;23;20458;-74
2023/08/03 01:08:50;;;;;;;75.73;26.77;;;19.20;99.90;;;;;;6242190;23;20899;-74
2023/08/03 01:11:17;;;;;;;69.47;25.20;;;19.20;99.90;;;;;;6242583;23;20439;-74
2023/08/03 01:13:44;;;;;;;75.60;28.50;;;19.20;99.90;;;;;;6242855;23;20427;-73
2023/08/03 01:16:11;;;;;;;69.17;26.00;;;19.20;99.90;;;;;;6242614;23;20403;-73
2023/08/03 01:18:41;;;;;;;74.57;27.40;;;19.20;99.90;;;;;;6241952;23;20404;-73
2023/08/03 01:21:09;;;;;;;70.37;27.10;;;19.20;99.90;;;;;;6242958;23;20442;-73
2023/08/03 01:23:37;;;;;;;69.87;26.90;;;19.20;99.90;;;;;;6242413;23;20423;-73
2023/08/03 01:26:04;;;;;;;73.63;27.20;;;19.30;99.90;;;;;;6242354;23;20404;-73
2023/08/03 01:28:31;;;;;;;72.93;26.40;;;19.30;99.90;;;;;;6242801;23;20466;-74
2023/08/03 01:30:58;;;;;;;73.63;26.70;;;19.20;99.90;;;;;;6242591;23;20489;-73
2023/08/03 01:33:24;;;;;;;72.50;27.17;;;19.10;99.90;;;;;;6242240;23;20447;-74
2023/08/03 01:35:52;;;;;;;69.50;25.87;;;19.10;99.90;;;;;;6242089;23;20412;-74
2023/08/03 01:38:19;;;;;;;69.40;26.40;;;19.10;99.90;;;;;;6242312;23;20414;-74
2023/08/03 01:40:47;;;;;;;72.70;27.53;;;19.00;99.90;;;;;;6242620;23;20404;-74
2023/08/03 01:43:14;;;;;;;71.27;26.30;;;19.10;99.90;;;;;;6243693;23;20403;-74
2023/08/03 01:45:41;;;;;;;72.47;24.33;;;19.00;99.90;;;;;;6244367;23;20411;-73
2023/08/03 01:48:07;;;;;;;72.77;27.70;;;19.00;99.90;;;;;;6244022;23;21028;-74
2023/08/03 01:50:34;;;;;;;74.23;25.37;;;19.00;99.90;;;;;;6244373;23;20447;-74
2023/08/03 01:53:01;;;;;;;73.00;25.83;;;19.10;99.90;;;;;;6244523;23;20464;-74
2023/08/03 01:55:27;;;;;;;73.97;25.80;;;19.10;99.90;;;;;;6244295;23;20407;-73
2023/08/03 01:57:55;;;;;;;68.67;24.63;;;19.10;99.90;;;;;;6244833;23;20412;-73
2023/08/03 02:00:25;;;;;;;71.60;26.37;;;19.10;99.90;;;;;;6244076;23;20423;-73
2023/08/03 02:02:52;;;;;;;70.97;26.00;;;19.20;99.90;;;;;;6244534;23;20408;-73
2023/08/03 02:05:19;;;;;;;73.40;24.57;;;19.20;99.90;;;;;;6243909;23;20911;-73
2023/08/03 02:07:53;;;;;;;70.33;24.33;;;19.20;99.90;;;;;;6244287;23;20411;-73
2023/08/03 02:10:20;;;;;;;69.03;23.47;;;19.10;99.90;;;;;;6244157;23;20396;-73
2023/08/03 02:12:47;;;;;;;70.27;25.50;;;19.10;99.90;;;;;;6244904;23;20423;-72
2023/08/03 02:15:15;;;;;;;68.33;24.80;;;19.00;99.90;;;;;;6244705;23;20747;-72
2023/08/03 02:17:42;;;;;;;73.20;26.20;;;19.00;99.90;;;;;;6244384;23;20403;-71
2023/08/03 02:20:10;;;;;;;73.00;24.40;;;19.00;99.90;;;;;;6244697;23;20408;-72
2023/08/03 02:22:37;;;;;;;71.00;24.23;;;19.00;99.90;;;;;;6244297;23;20860;-71
2023/08/03 02:25:05;;;;;;;70.00;23.40;;;19.00;99.90;;;;;;6244748;23;20415;-72
2023/08/03 02:27:31;;;;;;;76.50;26.40;;;19.00;99.90;;;;;;6244321;23;20414;-73
2023/08/03 02:29:58;;;;;;;69.67;24.47;;;18.90;99.90;;;;;;6243852;23;20408;-73
2023/08/03 02:32:27;;;;;;;68.90;24.80;;;18.90;99.90;;;;;;6243760;23;20451;-74
2023/08/03 02:34:53;;;;;;;67.90;25.17;;;18.80;99.90;;;;;;6243683;23;20782;-73
2023/08/03 02:37:20;;;;;;;75.80;25.40;;;18.80;99.90;;;;;;6244047;23;20407;-72
2023/08/03 02:39:47;;;;;;;72.73;24.87;;;18.80;99.90;;;;;;6243805;23;20775;-73
2023/08/03 02:42:13;;;;;;;69.20;24.73;;;18.70;99.90;;;;;;6244094;23;20407;-73
2023/08/03 02:44:40;;;;;;;74.07;27.20;;;18.60;99.90;;;;;;6243686;23;20410;-73
2023/08/03 02:47:07;;;;;;;73.43;25.33;;;18.60;99.90;;;;;;6243706;23;20730;-73
2023/08/03 02:49:35;;;;;;;70.80;25.27;;;18.50;99.90;;;;;;6244151;23;20407;-72
2023/08/03 02:52:02;;;;;;;74.90;25.13;;;18.60;99.90;;;;;;6243447;23;20444;-73
2023/08/03 02:54:29;;;;;;;72.53;22.57;;;18.50;99.90;;;;;;6243746;23;20494;-73
2023/08/03 02:56:55;;;;;;;70.90;24.93;;;18.60;99.90;;;;;;6243620;23;20717;-73
2023/08/03 02:59:22;;;;;;;73.93;24.50;;;18.60;99.90;;;;;;6243528;23;20407;-73
2023/08/03 03:01:49;;;;;;;69.43;25.67;;;18.60;99.90;;;;;;6243523;23;20411;-73
2023/08/03 03:04:15;;;;;;;70.23;26.33;;;18.60;99.90;;;;;;6243656;23;20408;-73
2023/08/03 03:06:43;;;;;;;76.73;25.63;;;18.50;99.90;;;;;;6243558;23;20411;-73
2023/08/03 03:09:10;;;;;;;73.47;24.87;;;18.60;99.90;;;;;;6243339;23;20411;-72
2023/08/03 03:11:37;;;;;;;69.63;24.20;;;18.50;99.90;;;;;;6243452;23;20746;-72
2023/08/03 03:14:03;;;;;;;71.67;26.80;;;18.50;99.90;;;;;;6243348;23;20400;-73
2023/08/03 03:16:30;;;;;;;77.20;26.47;;;18.50;99.90;;;;;;6243613;23;20404;-73
2023/08/03 03:18:57;;;;;;;68.93;25.27;;;18.50;99.90;;;;;;6243241;23;20403;-73
2023/08/03 03:21:23;;;;;;;73.73;26.03;;;18.50;99.90;;;;;;6243056;23;20403;-73
2023/08/03 03:23:51;;;;;;;72.77;26.90;;;18.60;99.90;;;;;;6243438;23;20768;-73
2023/08/03 03:26:18;;;;;;;75.60;26.03;;;18.60;99.90;;;;;;6243505;23;20412;-75
2023/08/03 03:28:45;;;;;;;74.67;25.27;;;18.60;99.90;;;;;;6243363;23;20896;-75
2023/08/03 03:31:11;;;;;;;74.20;24.23;;;18.60;99.90;;;;;;6240993;23;20466;-74
2023/08/03 03:33:38;;;;;;;74.00;26.10;;;18.50;99.90;;;;;;6242285;23;20466;-73
2023/08/03 03:36:06;;;;;;;72.57;25.43;;;18.40;99.90;;;;;;6241242;23;20407;-73
2023/08/03 03:38:33;;;;;;;71.53;25.43;;;18.40;99.90;;;;;;6241732;23;20800;-74
2023/08/03 03:41:01;;;;;;;81.23;32.87;;;18.30;99.90;;;;;;6243026;23;20409;-74
2023/08/03 03:43:28;;;;;;;73.57;26.60;;;18.40;99.90;;;;;;6242882;23;20451;-73
2023/08/03 03:45:54;;;;;;;75.07;27.80;;;18.50;99.90;;;;;;6242868;23;20420;-74
2023/08/03 03:48:21;;;;;;;76.10;28.20;;;18.50;99.90;;;;;;6242617;23;20415;-74
2023/08/03 03:50:48;;;;;;;74.97;26.00;;;18.50;99.90;;;;;;6242628;23;20411;-74
2023/08/03 03:53:15;;;;;;;73.37;26.10;;;18.50;99.90;;;;;;6236581;23;20513;-75
2023/08/03 03:55:41;;;;;;;76.87;26.60;;;18.50;99.90;;;;;;6242566;23;20407;-74
2023/08/03 03:58:10;;;;;;;72.20;25.33;;;18.40;99.90;;;;;;6241891;23;20744;-74
2023/08/03 04:00:40;;;;;;;72.20;27.87;;;18.30;99.90;;;;;;6242495;23;20408;-73
2023/08/03 04:03:07;;;;;;;71.10;24.73;;;18.40;99.90;;;;;;6242646;23;20404;-73
2023/08/03 04:05:34;;;;;;;73.43;25.23;;;18.40;99.90;;;;;;6242216;23;20540;-73
2023/08/03 04:08:00;;;;;;;73.43;26.10;;;18.40;99.90;;;;;;6242882;23;20408;-73
2023/08/03 04:10:27;;;;;;;73.90;25.70;;;18.40;99.90;;;;;;6243332;23;20411;-73
2023/08/03 04:12:54;;;;;;;71.93;26.73;;;18.40;99.90;;;;;;6242481;23;20458;-73
2023/08/03 04:15:22;;;;;;;70.30;25.70;;;18.40;99.90;;;;;;6242349;23;20404;-74
2023/08/03 04:17:49;;;;;;;72.10;25.17;;;18.40;99.90;;;;;;6242465;23;20396;-74
2023/08/03 04:20:17;;;;;;;69.17;25.50;;;18.40;99.90;;;;;;6242960;23;20487;-74
2023/08/03 04:22:43;;;;;;;70.80;25.80;;;18.40;99.90;;;;;;6242487;23;20800;-74
2023/08/03 04:25:10;;;;;;;71.17;25.70;;;18.40;99.90;;;;;;6242821;23;20417;-74
2023/08/03 04:27:37;;;;;;;69.67;24.83;;;18.40;99.90;;;;;;6242079;23;20411;-75
2023/08/03 04:30:04;;;;;;;72.40;25.43;;;18.40;99.90;;;;;;6242122;23;20408;-73
2023/08/03 04:32:32;;;;;;;71.23;25.70;;;18.40;99.90;;;;;;6241872;23;20461;-75
2023/08/03 04:34:59;;;;;;;70.80;24.10;;;18.40;99.90;;;;;;6241962;23;20395;-74
2023/08/03 04:37:26;;;;;;;71.70;25.13;;;18.40;99.90;;;;;;6242242;23;20408;-74
2023/08/03 04:39:52;;;;;;;74.00;24.13;;;18.50;99.90;;;;;;6242371;23;20414;-73
2023/08/03 04:42:19;;;;;;;69.80;25.90;;;18.50;99.90;;;;;;6242552;23;20725;-73
2023/08/03 04:44:46;;;;;;;70.87;24.17;;;18.50;99.90;;;;;;6242174;23;20404;-72
2023/08/03 04:47:13;;;;;;;67.70;25.10;;;18.50;99.90;;;;;;6241986;23;20725;-73
2023/08/03 04:49:41;;;;;;;72.23;24.33;;;18.60;99.90;;;;;;6242557;23;20669;-72
2023/08/03 04:52:08;;;;;;;71.97;28.10;;;18.90;99.90;;;;;;6241684;23;21237;-73
2023/08/03 04:54:35;;;;;;;70.27;24.93;;;19.20;99.90;;;;;;6242396;23;20408;-72
2023/08/03 04:57:02;;;;;;;66.30;23.80;;;19.50;99.90;;;;;;6239608;23;20922;-75
2023/08/03 04:59:28;;;;;;;69.67;24.67;;;19.80;99.90;;;;;;6241287;23;20914;-75
2023/08/03 05:01:55;;;;;;;67.60;24.90;;;20.00;99.90;;;;;;6241529;23;20407;-75
2023/08/03 05:04:22;;;;;;;69.60;25.20;;;20.40;99.90;;;;;;6242269;23;20730;-75
2023/08/03 05:06:51;;;;;;;69.60;24.20;;;20.50;99.90;;;;;;6242570;23;20758;-75
2023/08/03 05:09:17;;;;;;;69.40;25.70;;;20.80;99.90;;;;;;6242665;23;20415;-74
2023/08/03 05:11:44;;;;;;;69.30;24.80;;;21.00;99.90;;;;;;6242640;23;20448;-74
2023/08/03 05:14:11;;;;;;;70.00;25.20;;;21.20;99.90;;;;;;6241231;23;20935;-75
2023/08/03 05:16:37;;;;;;;77.83;27.33;;;21.40;99.90;;;;;;6241664;23;20740;-75
2023/08/03 05:19:04;;;;;;;71.03;24.70;;;21.50;99.90;;;;;;6241352;23;20479;-74
2023/08/03 05:21:31;;;;;;;66.47;24.77;;;21.60;99.90;;;;;;6241659;23;20396;-74
2023/08/03 05:23:59;;;;;;;67.80;24.60;;;21.90;99.90;;;;;;6241293;23;20410;-73
2023/08/03 05:26:26;;;;;;;71.90;24.67;;;21.80;99.90;;;;;;6241541;23;20399;-75
2023/08/03 05:28:53;;;;;;;70.43;24.80;;;21.50;99.90;;;;;;6241074;23;20431;-75
2023/08/03 05:31:20;;;;;;;67.20;24.20;;;21.30;99.90;;;;;;6241150;23;20503;-75
2023/08/03 05:33:47;;;;;;;66.80;23.90;;;21.10;99.90;;;;;;6241273;23;20888;-75
2023/08/03 05:36:13;;;;;;;71.23;25.17;;;20.80;99.90;;;;;;6241084;23;20439;-74
2023/08/03 05:38:40;;;;;;;67.70;24.73;;;20.70;99.90;;;;;;6240620;23;20412;-74
2023/08/03 05:41:15;;;;;;;67.80;23.87;;;20.50;99.90;;;;;;6242025;23;20412;-75
2023/08/03 05:43:41;;;;;;;69.33;24.83;;;20.20;99.90;;;;;;6241382;23;20403;-74
2023/08/03 05:46:14;;;;;;;68.27;25.10;;;20.20;99.90;;;;;;6241670;23;20411;-75
2023/08/03 05:48:41;;;;;;;69.57;24.53;;;20.20;99.90;;;;;;6241584;23;20389;-75
2023/08/03 05:51:10;;;;;;;66.90;23.87;;;20.10;99.90;;;;;;6242025;23;20414;-74
2023/08/03 05:53:37;;;;;;;79.13;23.07;;;20.10;99.90;;;;;;6240880;23;20934;-74
2023/08/03 05:56:09;;;;;;;67.83;25.10;;;20.10;99.90;;;;;;6241804;23;20396;-74
2023/08/03 05:58:37;;;;;;;66.17;23.20;;;20.10;99.90;;;;;;6241402;23;20410;-74
2023/08/03 06:01:04;;;;;;;67.23;24.37;;;20.20;99.90;;;;;;6241819;23;20714;-74
2023/08/03 06:03:33;;;;;;;66.90;24.40;;;20.30;99.90;;;;;;6241971;23;20442;-73
2023/08/03 06:06:04;;;;;;;67.67;24.80;;;20.40;99.90;;;;;;6242030;23;20733;-74
2023/08/03 06:08:30;;;;;;;65.67;23.93;;;20.70;99.90;;;;;;6241716;23;20399;-74
2023/08/03 06:11:02;;;;;;;68.27;23.60;;;21.30;99.90;;;;;;6241461;23;20411;-76
2023/08/03 06:13:32;;;;;;;66.33;22.60;;;21.70;99.90;;;;;;6241461;23;20451;-77
2023/08/03 06:15:59;;;;;;;67.73;24.37;;;21.80;99.90;;;;;;6241724;23;20461;-76
2023/08/03 06:18:26;;;;;;;72.83;25.43;;;21.90;99.90;;;;;;6238999;23;20463;-80
2023/08/03 06:20:53;;;;;;;68.37;25.30;;;22.10;99.90;;;;;;6237541;23;20431;-83
2023/08/03 06:23:22;;;;;;;67.40;24.67;;;22.00;99.90;;;;;;6241215;23;20689;-81
2023/08/03 06:25:50;;;;;;;67.30;25.50;;;22.10;99.90;;;;;;6241719;23;20462;-76
2023/08/03 06:28:18;;;;;;;67.53;24.43;;;22.20;99.90;;;;;;6241814;23;20411;-82
2023/08/03 06:30:47;;;;;;;65.77;24.60;;;22.00;99.90;;;;;;6242485;23;20415;-79
2023/08/03 06:33:16;;;;;;;67.00;25.70;;;22.40;99.90;;;;;;6243271;23;20451;-80
2023/08/03 06:35:44;;;;;;;68.93;25.40;;;23.20;98.40;;;;;;6243360;23;20415;-81
2023/08/03 06:38:13;;;;;;;68.87;24.90;;;23.30;97.90;;;;;;6243470;23;20408;-82
2023/08/03 06:40:40;;;;;;;67.17;24.90;;;22.80;98.10;;;;;;6243497;23;20466;-81
2023/08/03 06:43:08;;;;;;;67.90;24.47;;;22.40;98.70;;;;;;6242968;23;20887;-81
2023/08/03 06:45:36;;;;;;;65.80;24.37;;;23.10;98.50;;;;;;6242986;23;20412;-79
2023/08/03 06:48:05;;;;;;;66.57;25.40;;;23.80;95.70;;;;;;6243208;23;20407;-81
2023/08/03 06:50:33;;;;;;;65.37;24.93;;;24.30;93.80;;;;;;6243080;23;20412;-81
2023/08/03 06:53:01;;;;;;;67.27;25.30;;;25.00;93.40;;;;;;6243330;23;20451;-81
2023/08/03 06:55:29;;;;;;;65.90;24.87;;;24.80;91.10;;;;;;6242762;23;20416;-80
2023/08/03 06:57:56;;;;;;;66.57;25.97;;;24.60;90.30;;;;;;6242914;23;20407;-80
2023/08/03 07:00:23;;;;;;;66.53;25.30;;;24.90;90.30;;;;;;6242841;23;20423;-79
2023/08/03 07:02:50;;;;;;;66.70;25.93;;;25.60;88.40;;;;;;6242708;23;20404;-78
2023/08/03 07:05:19;;;;;;;67.27;24.67;;;25.30;84.70;;;;;;6243282;23;20503;-79
2023/08/03 07:07:45;;;;;;;66.07;23.80;;;24.70;88.10;;;;;;6242999;23;20426;-80
2023/08/03 07:10:12;;;;;;;66.70;26.00;;;24.70;87.30;;;;;;6243375;23;20415;-78
2023/08/03 07:12:39;;;;;;;64.73;24.40;;;24.70;88.30;;;;;;6241937;23;20456;-78
2023/08/03 07:15:06;;;;;;;66.00;25.70;;;25.20;86.90;;;;;;6243236;23;20741;-79
2023/08/03 07:17:33;;;;;;;65.47;24.07;;;25.00;87.00;;;;;;6242852;23;20813;-79
2023/08/03 07:20:00;;;;;;;65.77;24.20;;;24.70;87.10;;;;;;6242998;23;20404;-79
2023/08/03 07:22:28;;;;;;;65.87;26.20;;;24.50;88.40;;;;;;6242748;23;20774;-79
2023/08/03 07:24:55;;;;;;;66.07;24.90;;;24.40;88.10;;;;;;6242469;23;20411;-78
2023/08/03 07:27:22;;;;;;;65.00;24.00;;;24.10;87.70;;;;;;6242570;23;20404;-77
2023/08/03 07:29:48;;;;;;;67.17;25.20;;;24.40;89.00;;;;;;6242570;23;20411;-78
2023/08/03 07:32:15;;;;;;;65.70;25.07;;;25.00;86.00;;;;;;6243131;23;20435;-77
2023/08/03 07:34:42;;;;;;;65.70;25.10;;;25.60;85.30;;;;;;6242061;23;20438;-78
2023/08/03 07:37:08;;;;;;;65.07;25.37;;;26.20;83.10;;;;;;6242916;23;20440;-78
2023/08/03 07:39:36;;;;;;;64.60;26.80;;;26.40;80.50;;;;;;6242980;23;20410;-78
2023/08/03 07:42:03;;;;;;;65.20;24.47;;;26.70;79.10;;;;;;6242468;23;20400;-76
2023/08/03 07:44:30;;;;;;;65.17;25.97;;;26.70;80.20;;;;;;6243078;23;20400;-77
2023/08/03 07:46:57;;;;;;;66.10;26.03;;;26.80;80.30;;;;;;6242216;23;20415;-77
2023/08/03 07:49:23;;;;;;;66.87;28.30;;;27.50;78.00;;;;;;6242360;23;20670;-77
2023/08/03 07:51:50;;;;;;;66.30;25.30;;;27.20;76.80;;;;;;6242132;23;20702;-78
2023/08/03 07:54:17;;;;;;;64.73;25.40;;;27.60;77.40;;;;;;6242661;23;20444;-77
2023/08/03 07:56:45;;;;;;;64.80;24.40;;;27.60;76.10;;;;;;6242043;23;20898;-77
2023/08/03 07:59:13;;;;;;;65.63;25.80;;;27.90;76.30;;;;;;6242053;23;20411;-77
2023/08/03 08:01:40;;;;;;;65.80;27.50;;;27.50;75.60;;;;;;6241738;23;20492;-78
2023/08/03 08:04:10;;;;;;;64.27;23.50;;;26.30;76.70;;;;;;6242048;23;20403;-77
2023/08/03 08:06:36;;;;;;;66.77;25.97;;;25.10;82.10;;;;;;6242434;23;20407;-77
2023/08/03 08:09:04;;;;;;;65.60;26.73;;;25.60;81.80;;;;;;6242218;23;20467;-77
2023/08/03 08:11:31;;;;;;;65.37;26.03;;;26.40;80.70;;;;;;6242309;23;20411;-77
2023/08/03 08:13:59;;;;;;;66.20;24.97;;;27.00;77.60;;;;;;6241795;23;20440;-77
2023/08/03 08:16:26;;;;;;;66.03;25.70;;;26.60;78.80;;;;;;6242060;23;20408;-77
2023/08/03 08:18:53;;;;;;;65.10;25.97;;;26.70;78.10;;;;;;6241726;23;20411;-77
2023/08/03 08:21:20;;;;;;;67.03;25.57;;;26.60;79.10;;;;;;6241778;23;20483;-76
2023/08/03 08:23:47;;;;;;;64.57;25.50;;;26.90;79.10;;;;;;6241829;23;20411;-77
2023/08/03 08:26:14;;;;;;;63.53;24.87;;;26.90;79.00;;;;;;6241520;23;20415;-77
2023/08/03 08:28:42;;;;;;;65.50;25.47;;;26.70;79.80;;;;;;6241694;23;20411;-77
2023/08/03 08:31:10;;;;;;;64.70;24.87;;;27.00;78.80;;;;;;6241541;23;20404;-77
2023/08/03 08:33:38;;;;;;;65.20;25.30;;;26.60;79.50;;;;;;6241218;23;20448;-77
2023/08/03 08:36:05;;;;;;;65.23;25.50;;;26.50;79.80;;;;;;6241477;23;20887;-77
2023/08/03 08:38:32;;;;;;;65.70;26.10;;;26.50;80.80;;;;;;6242176;23;20419;-77
2023/08/03 08:41:02;;;;;;;64.23;25.13;;;26.60;79.80;;;;;;6241700;23;20717;-77
2023/08/03 08:43:29;;;;;;;66.60;25.27;;;25.90;81.10;;;;;;6242035;23;20450;-77
2023/08/03 08:45:55;;;;;;;64.47;23.23;;;25.80;82.50;;;;;;6241810;23;20404;-77
2023/08/03 08:48:23;;;;;;;63.70;24.60;;;26.00;82.30;;;;;;6241395;23;20411;-77
2023/08/03 08:50:51;;;;;;;64.40;24.70;;;26.10;82.30;;;;;;6241732;23;20806;-77
2023/08/03 08:53:18;;;;;;;66.47;26.50;;;25.30;84.00;;;;;;6241354;23;20448;-77
2023/08/03 08:55:46;;;;;;;65.67;24.57;;;25.40;82.60;;;;;;6241771;23;20410;-77
2023/08/03 08:58:13;;;;;;;65.70;23.90;;;24.70;82.60;;;;;;6241612;23;20412;-77
2023/08/03 09:00:44;;;;;;;66.23;24.40;;;24.50;84.20;;;;;;6241711;23;20404;-77
2023/08/03 09:03:12;;;;;;;64.53;24.40;;;24.80;85.50;;;;;;6241484;23;20400;-77
2023/08/03 09:05:40;;;;;;;65.00;23.40;;;24.80;83.70;;;;;;6241538;23;20408;-77
2023/08/03 09:08:09;;;;;;;65.93;24.97;;;25.00;84.70;;;;;;6241619;23;20415;-77
2023/08/03 09:10:49;;;;;;;67.20;25.10;;;25.20;84.80;;;;;;6241960;23;20438;-77
2023/08/03 09:13:27;;;;;;;65.57;25.00;;;25.30;84.90;;;;;;6241865;23;20450;-78
2023/08/03 09:15:54;;;;;;;64.60;24.40;;;25.50;82.90;;;;;;6243896;23;20810;-77
2023/08/03 09:18:21;;;;;;;66.67;26.03;;;25.60;82.70;;;;;;6241896;23;20403;-78
2023/08/03 09:20:50;;;;;;;69.47;26.23;;;25.60;81.60;;;;;;6242346;23;20404;-77
2023/08/03 09:23:30;;;;;;;65.10;24.63;;;25.30;82.80;;;;;;6242133;23;20461;-77
2023/08/03 09:25:57;;;;;;;65.40;24.67;;;25.20;83.70;;;;;;6242152;23;20414;-78
2023/08/03 09:28:35;;;;;;;64.10;24.13;;;25.40;83.30;;;;;;6241981;23;20515;-78
2023/08/03 09:31:02;;;;;;;64.63;24.97;;;25.40;82.50;;;;;;6242405;23;20388;-78
2023/08/03 09:33:29;;;;;;;65.77;25.80;;;25.60;83.70;;;;;;6241777;22;20931;-79
2023/08/03 09:36:04;;;;;;;65.67;26.07;;;26.80;79.80;;;;;;6241863;23;20404;-78
2023/08/03 09:38:31;;;;;;;63.90;24.93;;;27.40;79.30;;;;;;6242055;23;20388;-79
2023/08/03 09:40:59;;;;;;;64.20;26.13;;;28.00;77.30;;;;;;6242135;23;20395;-79
2023/08/03 09:43:27;;;;;;;65.50;26.20;;;28.70;74.30;;;;;;6241660;23;20423;-78
2023/08/03 09:45:55;;;;;;;65.37;25.90;;;28.70;74.90;;;;;;6241587;23;20411;-77
2023/08/03 09:48:22;;;;;;;63.27;24.63;;;27.80;73.90;;;;;;6241732;23;20404;-78
2023/08/03 09:50:51;;;;;;;65.20;25.10;;;27.10;76.30;;;;;;6241927;23;20403;-77
2023/08/03 09:53:21;;;;;;;64.93;25.10;;;26.30;79.00;;;;;;6246360;23;20450;-77
2023/08/03 09:55:57;;;;;;;66.30;24.90;;;25.90;81.30;;;;;;6242724;23;20399;-77
2023/08/03 09:58:29;;;;;;;68.57;27.03;;;25.60;82.20;;;;;;6242153;23;20396;-78
2023/08/03 10:00:59;;;;;;;64.17;23.80;;;25.60;82.80;;;;;;6242240;23;20700;-77
2023/08/03 10:03:28;;;;;;;67.57;24.57;;;25.80;83.10;;;;;;6242095;23;20392;-78
2023/08/03 10:06:02;;;;;;;64.70;26.10;;;25.90;81.80;;;;;;6247395;23;20423;-78
2023/08/03 10:08:33;;;;;;;66.50;27.83;;;26.00;82.30;;;;;;6245800;23;20417;-78
2023/08/03 10:11:03;;;;;;;65.57;25.80;;;25.90;80.80;;;;;;6246729;23;20445;-77
2023/08/03 10:13:34;;;;;;;64.90;23.90;;;26.00;81.90;;;;;;6246458;23;20474;-77
2023/08/03 10:16:02;;;;;;;65.10;24.53;;;25.90;81.80;;;;;;6245536;23;20492;-76
2023/08/03 10:18:31;;;;;;;65.80;24.70;;;25.30;82.80;;;;;;6244993;23;20400;-77
2023/08/03 10:20:59;;;;;;;64.70;23.47;;;24.50;84.60;;;;;;6245060;23;20399;-77
2023/08/03 10:23:25;;;;;;;64.80;24.20;;;24.60;85.10;;;;;;6244513;23;20423;-77
2023/08/03 10:25:55;;;;;;;64.83;24.30;;;24.80;84.70;;;;;;6244053;23;20731;-77
2023/08/03 10:28:24;;;;;;;65.07;25.00;;;24.70;84.10;;;;;;6244223;23;20400;-78
2023/08/03 10:31:10;;;;;;;65.70;25.07;;;24.70;85.10;;;;;;6244654;23;20816;-77
2023/08/03 10:34:03;;;;;;;64.27;24.03;;;24.80;83.80;;;;;;6243972;22;20444;-79
2023/08/03 10:36:45;;;;;;;64.63;25.43;;;25.30;83.40;;;;;;6239246;23;20423;-78
2023/08/03 10:39:14;;;;;;;66.40;26.73;;;26.00;82.50;;;;;;6244685;23;20466;-78
2023/08/03 10:41:44;;;;;;;64.03;25.70;;;26.60;82.10;;;;;;6244437;23;20419;-77
2023/08/03 10:44:27;;;;;;;64.60;24.50;;;27.00;79.90;;;;;;6243823;23;20392;-77
2023/08/03 10:46:56;;;;;;;64.90;26.37;;;26.90;80.40;;;;;;6243805;23;20482;-77
2023/08/03 10:49:50;;;;;;;64.47;25.50;;;26.70;81.00;;;;;;6244420;23;20434;-77
2023/08/03 10:52:20;;;;;;;68.20;24.57;;;26.50;81.50;;;;;;6230301;23;20422;-78
2023/08/03 10:54:48;;;;;;;65.70;26.00;;;25.90;81.90;;;;;;6244460;23;20448;-78
2023/08/03 10:57:18;;;;;;;65.73;25.20;;;25.60;83.50;;;;;;6244399;23;20404;-78
2023/08/03 10:59:47;;;;;;;65.00;25.37;;;25.80;83.30;;;;;;6244636;23;20404;-78
2023/08/03 11:02:18;;;;;;;65.83;25.27;;;25.80;83.90;;;;;;6244035;23;20613;-79
2023/08/03 11:04:45;;;;;;;66.33;25.10;;;26.10;83.00;;;;;;6243233;23;20389;-78
2023/08/03 11:07:17;;;;;;;65.30;25.57;;;25.90;82.30;;;;;;6242891;23;20431;-78
2023/08/03 11:09:44;;;;;;;66.37;25.60;;;26.00;82.90;;;;;;6243506;23;20403;-78
2023/08/03 11:12:11;;;;;;;66.17;24.83;;;25.60;82.80;;;;;;6236045;23;20428;-78
2023/08/03 11:14:40;;;;;;;65.10;26.10;;;25.60;83.00;;;;;;6241551;23;20448;-78
2023/08/03 11:17:07;;;;;;;65.23;25.17;;;25.40;83.10;;;;;;6242296;23;20415;-77
2023/08/03 11:19:38;;;;;;;65.07;24.63;;;25.60;82.60;;;;;;6242231;23;20427;-78
2023/08/03 11:22:05;;;;;;;64.77;25.43;;;26.10;82.60;;;;;;6241871;23;20392;-77
2023/08/03 11:24:32;;;;;;;65.37;25.03;;;25.80;81.30;;;;;;6241740;23;20416;-78
2023/08/03 11:27:00;;;;;;;64.33;24.93;;;26.00;80.90;;;;;;6242533;23;20499;-78
2023/08/03 11:29:27;;;;;;;65.47;26.13;;;26.00;79.50;;;;;;6242792;23;20411;-79
2023/08/03 11:31:55;;;;;;;65.50;24.90;;;26.10;80.50;;;;;;6242668;23;20637;-79
2023/08/03 11:34:24;;;;;;;63.90;24.90;;;26.30;81.10;;;;;;6241922;22;20459;-78
2023/08/03 11:36:52;;;;;;;65.10;25.37;;;26.10;79.70;;;;;;6242787;23;20729;-79
2023/08/03 11:39:19;;;;;;;64.67;24.37;;;25.90;81.30;;;;;;6242902;23;20412;-77
2023/08/03 11:41:47;;;;;;;65.70;25.30;;;25.80;82.20;;;;;;6243439;23;20408;-80
2023/08/03 11:44:14;;;;;;;66.43;25.03;;;26.00;82.90;;;;;;6243221;23;20479;-77
2023/08/03 11:46:41;;;;;;;65.60;25.00;;;25.80;83.00;;;;;;6243119;23;20404;-78
2023/08/03 11:49:12;;;;;;;64.77;24.77;;;25.90;81.30;;;;;;6240289;23;20943;-78
2023/08/03 11:51:38;;;;;;;65.27;25.67;;;25.80;81.00;;;;;;6243190;23;20485;-77
2023/08/03 11:54:06;;;;;;;64.33;24.47;;;25.60;81.30;;;;;;6242467;23;20444;-79
2023/08/03 11:56:34;;;;;;;64.80;23.90;;;25.50;83.20;;;;;;6243065;23;20403;-80
2023/08/03 11:59:01;;;;;;;66.17;24.77;;;26.00;82.10;;;;;;6243086;23;20493;-79
2023/08/03 12:01:28;;;;;;;65.37;24.90;;;26.40;81.10;;;;;;6242962;23;20410;-80
2023/08/03 12:04:05;;;;;;;64.40;25.73;;;27.20;79.50;;;;;;6242734;23;20403;-79
2023/08/03 12:06:47;;;;;;;64.80;25.90;;;27.50;77.60;;;;;;6243013;23;20399;-78
2023/08/03 12:09:21;;;;;;;64.63;25.03;;;27.10;78.90;;;;;;6242997;23;20400;-76
2023/08/03 12:11:48;;;;;;;64.40;25.50;;;27.00;79.10;;;;;;6242514;23;20420;-76
2023/08/03 12:14:15;;;;;;;63.83;24.23;;;27.20;78.30;;;;;;6242635;23;20440;-78
2023/08/03 12:16:42;;;;;;;67.27;26.60;;;27.40;78.30;;;;;;6242785;23;20411;-80
2023/08/03 12:19:11;;;;;;;65.57;26.03;;;28.60;76.60;;;;;;6242745;23;20400;-78
2023/08/03 12:21:38;;;;;;;64.40;25.90;;;30.00;72.30;;;;;;6242678;23;20431;-78
2023/08/03 12:24:07;;;;;;;65.60;26.27;;;30.20;68.80;;;;;;6242160;23;20430;-77
2023/08/03 12:26:34;;;;;;;65.70;27.30;;;29.20;71.10;;;;;;6242230;23;20738;-76
2023/08/03 12:29:03;;;;;;;65.43;27.30;;;28.80;70.70;;;;;;6243233;23;20428;-77
2023/08/03 12:31:30;;;;;;;64.00;26.17;;;28.40;71.00;;;;;;6242785;23;20416;-76